sensor_id;sensor_type;location;lat;lon;timestamp;temperature;humidity
48998;DHT22;34807;51.456;7.244;2023-02-01T00:01:09;4.60;99.90
48998;DHT22;34807;51.456;7.244;2023-02-01T00:03:35;4.60;99.90
48998;DHT22;34807;51.456;7.244;2023-02-01T00:06:00;4.60;99.90
48998;DHT22;34807;51.456;7.244;2023-02-01T00:08:26;4.60;99.90
48998;DHT22;34807;51.456;7.244;2023-02-01T00:11:25;4.60;99.90
48998;DHT22;34807;51.456;7.244;2023-02-01T00:13:43;4.60;99.90
48998;DHT22;34807;51.456;7.244;2023-02-01T00:16:13;4.60;99.90
48998;DHT22;34807;51.456;7.244;2023-02-01T00:18:41;4.60;99.90
48998;DHT22;34807;51.456;7.244;2023-02-01T00:21:07;4.60;99.90
48998;DHT22;34807;51.456;7.244;2023-02-01T00:23:33;4.60;99.90
48998;DHT22;34807;51.456;7.244;2023-02-01T00:26:00;4.60;99.90
48998;DHT22;34807;51.456;7.244;2023-02-01T00:28:25;4.60;99.90
48998;DHT22;34807;51.456;7.244;2023-02-01T00:31:00;4.60;99.90
48998;DHT22;34807;51.456;7.244;2023-02-01T00:33:26;4.70;99.90
48998;DHT22;34807;51.456;7.244;2023-02-01T00:35:55;4.60;99.90
48998;DHT22;34807;51.456;7.244;2023-02-01T00:38:21;4.70;99.90
48998;DHT22;34807;51.456;7.244;2023-02-01T00:40:46;4.70;99.90
48998;DHT22;34807;51.456;7.244;2023-02-01T00:43:12;4.60;99.90
48998;DHT22;34807;51.456;7.244;2023-02-01T00:45:37;4.60;99.90
48998;DHT22;34807;51.456;7.244;2023-02-01T00:48:03;4.60;99.90
48998;DHT22;34807;51.456;7.244;2023-02-01T00:50:28;4.60;99.90
48998;DHT22;34807;51.456;7.244;2023-02-01T00:52:54;4.70;99.90
48998;DHT22;34807;51.456;7.244;2023-02-01T00:55:19;4.60;99.90
48998;DHT22;34807;51.456;7.244;2023-02-01T00:57:45;4.70;99.90
48998;DHT22;34807;51.456;7.244;2023-02-01T01:00:10;4.60;99.90
48998;DHT22;34807;51.456;7.244;2023-02-01T01:02:36;4.70;99.90
48998;DHT22;34807;51.456;7.244;2023-02-01T01:05:02;4.60;99.90
48998;DHT22;34807;51.456;7.244;2023-02-01T01:07:27;4.70;99.90
48998;DHT22;34807;51.456;7.244;2023-02-01T01:09:53;4.60;99.90
48998;DHT22;34807;51.456;7.244;2023-02-01T01:12:18;4.70;99.90
48998;DHT22;34807;51.456;7.244;2023-02-01T01:14:45;4.60;99.90
48998;DHT22;34807;51.456;7.244;2023-02-01T01:17:10;4.60;99.90
48998;DHT22;34807;51.456;7.244;2023-02-01T01:19:36;4.60;99.90
48998;DHT22;34807;51.456;7.244;2023-02-01T01:22:01;4.70;99.90
48998;DHT22;34807;51.456;7.244;2023-02-01T01:24:27;4.60;99.90
48998;DHT22;34807;51.456;7.244;2023-02-01T01:26:52;4.70;99.90
48998;DHT22;34807;51.456;7.244;2023-02-01T01:29:18;4.70;99.90
48998;DHT22;34807;51.456;7.244;2023-02-01T01:31:43;4.70;99.90
48998;DHT22;34807;51.456;7.244;2023-02-01T01:34:09;4.60;99.90
48998;DHT22;34807;51.456;7.244;2023-02-01T01:36:34;4.60;99.90
48998;DHT22;34807;51.456;7.244;2023-02-01T01:39:00;4.60;99.90
48998;DHT22;34807;51.456;7.244;2023-02-01T01:41:28;4.70;99.90
48998;DHT22;34807;51.456;7.244;2023-02-01T01:43:55;4.70;99.90
48998;DHT22;34807;51.456;7.244;2023-02-01T01:46:25;4.70;99.90
48998;DHT22;34807;51.456;7.244;2023-02-01T01:49:11;4.60;99.90
48998;DHT22;34807;51.456;7.244;2023-02-01T01:51:38;4.60;99.90
48998;DHT22;34807;51.456;7.244;2023-02-01T01:54:10;4.60;99.90
48998;DHT22;34807;51.456;7.244;2023-02-01T01:56:37;4.60;99.90
48998;DHT22;34807;51.456;7.244;2023-02-01T01:59:03;4.60;99.90
48998;DHT22;34807;51.456;7.244;2023-02-01T02:01:32;4.70;99.90
48998;DHT22;34807;51.456;7.244;2023-02-01T02:04:01;4.60;99.90
48998;DHT22;34807;51.456;7.244;2023-02-01T02:06:32;4.60;99.90
48998;DHT22;34807;51.456;7.244;2023-02-01T02:09:00;4.60;99.90
48998;DHT22;34807;51.456;7.244;2023-02-01T02:11:26;4.60;99.90
48998;DHT22;34807;51.456;7.244;2023-02-01T02:13:52;4.60;99.90
48998;DHT22;34807;51.456;7.244;2023-02-01T02:24:51;4.60;99.90
48998;DHT22;34807;51.456;7.244;2023-02-01T02:38:18;4.60;99.90
48998;DHT22;34807;51.456;7.244;2023-02-01T02:49:00;4.60;99.90
48998;DHT22;34807;51.456;7.244;2023-02-01T02:54:23;4.60;99.90
48998;DHT22;34807;51.456;7.244;2023-02-01T02:57:09;4.60;99.90
48998;DHT22;34807;51.456;7.244;2023-02-01T02:59:54;4.60;99.90
48998;DHT22;34807;51.456;7.244;2023-02-01T03:02:39;4.60;99.90
48998;DHT22;34807;51.456;7.244;2023-02-01T03:05:23;4.60;99.90
48998;DHT22;34807;51.456;7.244;2023-02-01T03:13:23;4.60;99.90
48998;DHT22;34807;51.456;7.244;2023-02-01T03:18:36;4.60;99.90
48998;DHT22;34807;51.456;7.244;2023-02-01T03:21:07;4.60;99.90
48998;DHT22;34807;51.456;7.244;2023-02-01T03:23:35;4.60;99.90
48998;DHT22;34807;51.456;7.244;2023-02-01T03:26:01;4.60;99.90
48998;DHT22;34807;51.456;7.244;2023-02-01T03:28:28;4.60;99.90
48998;DHT22;34807;51.456;7.244;2023-02-01T03:30:54;4.60;99.90
48998;DHT22;34807;51.456;7.244;2023-02-01T03:33:20;4.60;99.90
48998;DHT22;34807;51.456;7.244;2023-02-01T03:38:15;4.60;99.90
48998;DHT22;34807;51.456;7.244;2023-02-01T03:40:44;4.60;99.90
48998;DHT22;34807;51.456;7.244;2023-02-01T03:43:12;4.60;99.90
48998;DHT22;34807;51.456;7.244;2023-02-01T03:45:47;4.60;99.90
48998;DHT22;34807;51.456;7.244;2023-02-01T03:48:14;4.60;99.90
48998;DHT22;34807;51.456;7.244;2023-02-01T03:50:46;4.60;99.90
48998;DHT22;34807;51.456;7.244;2023-02-01T03:53:17;4.60;99.90
48998;DHT22;34807;51.456;7.244;2023-02-01T03:55:44;4.60;99.90
48998;DHT22;34807;51.456;7.244;2023-02-01T03:58:14;4.60;99.90
48998;DHT22;34807;51.456;7.244;2023-02-01T04:00:43;4.60;99.90
48998;DHT22;34807;51.456;7.244;2023-02-01T04:03:09;4.60;99.90
48998;DHT22;34807;51.456;7.244;2023-02-01T04:05:35;4.50;99.90
48998;DHT22;34807;51.456;7.244;2023-02-01T04:08:00;4.60;99.90
48998;DHT22;34807;51.456;7.244;2023-02-01T04:10:26;4.60;99.90
48998;DHT22;34807;51.456;7.244;2023-02-01T04:12:51;4.60;99.90
48998;DHT22;34807;51.456;7.244;2023-02-01T04:15:17;4.60;99.90
48998;DHT22;34807;51.456;7.244;2023-02-01T04:17:43;4.50;99.90
48998;DHT22;34807;51.456;7.244;2023-02-01T04:20:08;4.50;99.90
48998;DHT22;34807;51.456;7.244;2023-02-01T04:22:34;4.60;99.90
48998;DHT22;34807;51.456;7.244;2023-02-01T04:25:00;4.60;99.90
48998;DHT22;34807;51.456;7.244;2023-02-01T04:27:25;4.60;99.90
48998;DHT22;34807;51.456;7.244;2023-02-01T04:29:51;4.50;99.90
48998;DHT22;34807;51.456;7.244;2023-02-01T04:32:17;4.60;99.90
48998;DHT22;34807;51.456;7.244;2023-02-01T04:34:43;4.60;99.90
48998;DHT22;34807;51.456;7.244;2023-02-01T04:37:08;4.50;99.90
48998;DHT22;34807;51.456;7.244;2023-02-01T04:39:34;4.60;99.90
48998;DHT22;34807;51.456;7.244;2023-02-01T04:41:59;4.60;99.90
48998;DHT22;34807;51.456;7.244;2023-02-01T04:44:25;4.60;99.90
48998;DHT22;34807;51.456;7.244;2023-02-01T04:46:51;4.50;99.90
48998;DHT22;34807;51.456;7.244;2023-02-01T04:49:16;4.60;99.90
48998;DHT22;34807;51.456;7.244;2023-02-01T04:51:42;4.50;99.90
48998;DHT22;34807;51.456;7.244;2023-02-01T04:54:07;4.60;99.90
48998;DHT22;34807;51.456;7.244;2023-02-01T04:56:33;4.60;99.90
48998;DHT22;34807;51.456;7.244;2023-02-01T04:59:00;4.60;99.90
48998;DHT22;34807;51.456;7.244;2023-02-01T05:01:27;4.60;99.90
48998;DHT22;34807;51.456;7.244;2023-02-01T05:03:53;4.50;99.90
48998;DHT22;34807;51.456;7.244;2023-02-01T05:06:18;4.60;99.90
48998;DHT22;34807;51.456;7.244;2023-02-01T05:08:43;4.60;99.90
48998;DHT22;34807;51.456;7.244;2023-02-01T05:11:09;4.60;99.90
48998;DHT22;34807;51.456;7.244;2023-02-01T05:13:58;4.60;99.90
48998;DHT22;34807;51.456;7.244;2023-02-01T05:16:23;4.60;99.90
48998;DHT22;34807;51.456;7.244;2023-02-01T05:18:49;4.60;99.90
48998;DHT22;34807;51.456;7.244;2023-02-01T05:21:14;4.60;99.90
48998;DHT22;34807;51.456;7.244;2023-02-01T05:23:40;4.60;99.90
48998;DHT22;34807;51.456;7.244;2023-02-01T05:26:24;4.60;99.90
48998;DHT22;34807;51.456;7.244;2023-02-01T05:28:50;4.60;99.90
48998;DHT22;34807;51.456;7.244;2023-02-01T05:31:15;4.60;99.90
48998;DHT22;34807;51.456;7.244;2023-02-01T05:33:41;4.60;99.90
48998;DHT22;34807;51.456;7.244;2023-02-01T05:36:06;4.60;99.90
48998;DHT22;34807;51.456;7.244;2023-02-01T05:38:32;4.60;99.90
48998;DHT22;34807;51.456;7.244;2023-02-01T05:40:57;4.60;99.90
48998;DHT22;34807;51.456;7.244;2023-02-01T05:43:23;4.60;99.90
48998;DHT22;34807;51.456;7.244;2023-02-01T05:45:48;4.60;99.90
48998;DHT22;34807;51.456;7.244;2023-02-01T05:48:14;4.60;99.90
48998;DHT22;34807;51.456;7.244;2023-02-01T05:50:39;4.60;99.90
48998;DHT22;34807;51.456;7.244;2023-02-01T05:53:05;4.60;99.90
48998;DHT22;34807;51.456;7.244;2023-02-01T05:55:31;4.60;99.90
48998;DHT22;34807;51.456;7.244;2023-02-01T05:57:56;4.60;99.90
48998;DHT22;34807;51.456;7.244;2023-02-01T06:00:22;4.60;99.90
48998;DHT22;34807;51.456;7.244;2023-02-01T06:02:47;4.60;99.90
48998;DHT22;34807;51.456;7.244;2023-02-01T06:05:13;4.60;99.90
48998;DHT22;34807;51.456;7.244;2023-02-01T06:07:38;4.60;99.90
48998;DHT22;34807;51.456;7.244;2023-02-01T06:10:04;4.60;99.90
48998;DHT22;34807;51.456;7.244;2023-02-01T06:12:30;4.60;99.90
48998;DHT22;34807;51.456;7.244;2023-02-01T06:14:55;4.60;99.90
48998;DHT22;34807;51.456;7.244;2023-02-01T06:17:21;4.60;99.90
48998;DHT22;34807;51.456;7.244;2023-02-01T06:19:46;4.60;99.90
48998;DHT22;34807;51.456;7.244;2023-02-01T06:22:13;4.60;99.90
48998;DHT22;34807;51.456;7.244;2023-02-01T06:24:39;4.60;99.90
48998;DHT22;34807;51.456;7.244;2023-02-01T06:27:06;4.60;99.90
48998;DHT22;34807;51.456;7.244;2023-02-01T06:29:32;4.60;99.90
48998;DHT22;34807;51.456;7.244;2023-02-01T06:31:58;4.60;99.90
48998;DHT22;34807;51.456;7.244;2023-02-01T06:34:23;4.60;99.90
48998;DHT22;34807;51.456;7.244;2023-02-01T06:36:49;4.60;99.90
48998;DHT22;34807;51.456;7.244;2023-02-01T06:39:15;4.60;99.90
48998;DHT22;34807;51.456;7.244;2023-02-01T06:41:50;4.60;99.90
48998;DHT22;34807;51.456;7.244;2023-02-01T06:44:16;4.60;99.90
48998;DHT22;34807;51.456;7.244;2023-02-01T06:46:41;4.60;99.90
48998;DHT22;34807;51.456;7.244;2023-02-01T06:49:07;4.60;99.90
48998;DHT22;34807;51.456;7.244;2023-02-01T06:51:33;4.60;99.90
48998;DHT22;34807;51.456;7.244;2023-02-01T06:53:59;4.60;99.90
48998;DHT22;34807;51.456;7.244;2023-02-01T06:56:24;4.60;99.90
48998;DHT22;34807;51.456;7.244;2023-02-01T06:58:50;4.60;99.90
48998;DHT22;34807;51.456;7.244;2023-02-01T07:01:15;4.60;99.90
48998;DHT22;34807;51.456;7.244;2023-02-01T07:03:41;4.60;99.90
48998;DHT22;34807;51.456;7.244;2023-02-01T07:06:07;4.60;99.90
48998;DHT22;34807;51.456;7.244;2023-02-01T07:08:33;4.60;99.90
48998;DHT22;34807;51.456;7.244;2023-02-01T07:11:06;4.60;99.90
48998;DHT22;34807;51.456;7.244;2023-02-01T07:13:32;4.60;99.90
48998;DHT22;34807;51.456;7.244;2023-02-01T07:16:01;4.60;99.90
48998;DHT22;34807;51.456;7.244;2023-02-01T07:18:28;4.60;99.90
48998;DHT22;34807;51.456;7.244;2023-02-01T07:20:54;4.60;99.90
48998;DHT22;34807;51.456;7.244;2023-02-01T07:23:19;4.60;99.90
48998;DHT22;34807;51.456;7.244;2023-02-01T07:25:45;4.60;99.90
48998;DHT22;34807;51.456;7.244;2023-02-01T07:28:11;4.60;99.90
48998;DHT22;34807;51.456;7.244;2023-02-01T07:30:36;4.60;99.90
48998;DHT22;34807;51.456;7.244;2023-02-01T07:33:02;4.60;99.90
48998;DHT22;34807;51.456;7.244;2023-02-01T07:35:28;4.70;99.90
48998;DHT22;34807;51.456;7.244;2023-02-01T07:37:53;4.60;99.90
48998;DHT22;34807;51.456;7.244;2023-02-01T07:40:19;4.70;99.90
48998;DHT22;34807;51.456;7.244;2023-02-01T07:42:48;4.70;99.90
48998;DHT22;34807;51.456;7.244;2023-02-01T07:45:13;4.70;99.90
48998;DHT22;34807;51.456;7.244;2023-02-01T07:47:40;4.60;99.90
48998;DHT22;34807;51.456;7.244;2023-02-01T07:50:06;4.70;99.90
48998;DHT22;34807;51.456;7.244;2023-02-01T07:52:31;4.70;99.90
48998;DHT22;34807;51.456;7.244;2023-02-01T07:54:57;4.70;99.90
48998;DHT22;34807;51.456;7.244;2023-02-01T07:57:22;4.70;99.90
48998;DHT22;34807;51.456;7.244;2023-02-01T07:59:48;4.70;99.90
48998;DHT22;34807;51.456;7.244;2023-02-01T08:02:36;4.70;99.90
48998;DHT22;34807;51.456;7.244;2023-02-01T08:05:01;4.70;99.90
48998;DHT22;34807;51.456;7.244;2023-02-01T08:07:27;4.70;99.90
48998;DHT22;34807;51.456;7.244;2023-02-01T08:09:52;4.70;99.90
48998;DHT22;34807;51.456;7.244;2023-02-01T08:12:18;4.70;99.90
48998;DHT22;34807;51.456;7.244;2023-02-01T08:14:43;4.70;99.90
48998;DHT22;34807;51.456;7.244;2023-02-01T08:17:09;4.70;99.90
48998;DHT22;34807;51.456;7.244;2023-02-01T08:19:34;4.70;99.90
48998;DHT22;34807;51.456;7.244;2023-02-01T08:22:00;4.70;99.90
48998;DHT22;34807;51.456;7.244;2023-02-01T08:24:27;4.80;99.90
48998;DHT22;34807;51.456;7.244;2023-02-01T08:26:52;4.70;99.90
48998;DHT22;34807;51.456;7.244;2023-02-01T08:29:18;4.70;99.90
48998;DHT22;34807;51.456;7.244;2023-02-01T08:31:43;4.80;99.90
48998;DHT22;34807;51.456;7.244;2023-02-01T08:34:09;4.80;99.90
48998;DHT22;34807;51.456;7.244;2023-02-01T08:36:35;4.80;99.90
48998;DHT22;34807;51.456;7.244;2023-02-01T08:39:00;4.80;99.90
48998;DHT22;34807;51.456;7.244;2023-02-01T08:41:28;4.80;99.90
48998;DHT22;34807;51.456;7.244;2023-02-01T08:43:54;4.80;99.90
48998;DHT22;34807;51.456;7.244;2023-02-01T08:46:20;4.80;99.90
48998;DHT22;34807;51.456;7.244;2023-02-01T08:48:46;4.80;99.90
48998;DHT22;34807;51.456;7.244;2023-02-01T08:51:12;4.80;99.90
48998;DHT22;34807;51.456;7.244;2023-02-01T08:53:39;4.80;99.90
48998;DHT22;34807;51.456;7.244;2023-02-01T08:56:08;4.80;99.90
48998;DHT22;34807;51.456;7.244;2023-02-01T08:58:34;4.90;99.90
48998;DHT22;34807;51.456;7.244;2023-02-01T09:01:06;4.90;99.90
48998;DHT22;34807;51.456;7.244;2023-02-01T09:03:32;4.90;99.90
48998;DHT22;34807;51.456;7.244;2023-02-01T09:06:01;4.90;99.90
48998;DHT22;34807;51.456;7.244;2023-02-01T09:08:27;4.90;99.90
48998;DHT22;34807;51.456;7.244;2023-02-01T09:10:52;4.90;99.90
48998;DHT22;34807;51.456;7.244;2023-02-01T09:13:18;4.90;99.90
48998;DHT22;34807;51.456;7.244;2023-02-01T09:15:43;4.90;99.90
48998;DHT22;34807;51.456;7.244;2023-02-01T09:18:09;4.90;99.90
48998;DHT22;34807;51.456;7.244;2023-02-01T09:20:34;5.00;99.90
48998;DHT22;34807;51.456;7.244;2023-02-01T09:23:01;5.00;99.90
48998;DHT22;34807;51.456;7.244;2023-02-01T09:25:27;5.00;99.90
48998;DHT22;34807;51.456;7.244;2023-02-01T09:27:52;5.00;99.90
48998;DHT22;34807;51.456;7.244;2023-02-01T09:30:18;5.10;99.90
48998;DHT22;34807;51.456;7.244;2023-02-01T09:32:43;5.10;99.90
48998;DHT22;34807;51.456;7.244;2023-02-01T09:35:09;5.10;99.90
48998;DHT22;34807;51.456;7.244;2023-02-01T09:37:34;5.10;99.90
48998;DHT22;34807;51.456;7.244;2023-02-01T09:40:01;5.10;99.90
48998;DHT22;34807;51.456;7.244;2023-02-01T09:42:51;5.10;99.90
48998;DHT22;34807;51.456;7.244;2023-02-01T09:47:43;5.20;99.90
48998;DHT22;34807;51.456;7.244;2023-02-01T09:50:12;5.20;99.90
48998;DHT22;34807;51.456;7.244;2023-02-01T09:52:44;5.20;99.90
48998;DHT22;34807;51.456;7.244;2023-02-01T09:55:15;5.20;99.90
48998;DHT22;34807;51.456;7.244;2023-02-01T09:57:52;5.20;99.90
48998;DHT22;34807;51.456;7.244;2023-02-01T10:00:29;5.30;99.90
48998;DHT22;34807;51.456;7.244;2023-02-01T10:02:55;5.30;99.90
48998;DHT22;34807;51.456;7.244;2023-02-01T10:05:30;5.30;99.90
48998;DHT22;34807;51.456;7.244;2023-02-01T10:10:56;5.40;99.90
48998;DHT22;34807;51.456;7.244;2023-02-01T10:16:39;5.40;99.90
48998;DHT22;34807;51.456;7.244;2023-02-01T10:19:19;5.50;99.90
48998;DHT22;34807;51.456;7.244;2023-02-01T10:24:18;5.50;99.90
48998;DHT22;34807;51.456;7.244;2023-02-01T10:26:45;5.50;99.90
48998;DHT22;34807;51.456;7.244;2023-02-01T10:29:16;5.60;99.90
48998;DHT22;34807;51.456;7.244;2023-02-01T10:31:43;5.50;99.90
48998;DHT22;34807;51.456;7.244;2023-02-01T10:34:15;5.60;99.90
48998;DHT22;34807;51.456;7.244;2023-02-01T10:36:50;5.60;99.90
48998;DHT22;34807;51.456;7.244;2023-02-01T10:39:17;5.60;99.90
48998;DHT22;34807;51.456;7.244;2023-02-01T10:41:43;5.60;99.90
48998;DHT22;34807;51.456;7.244;2023-02-01T10:44:13;5.60;99.90
48998;DHT22;34807;51.456;7.244;2023-02-01T10:46:39;5.50;99.90
48998;DHT22;34807;51.456;7.244;2023-02-01T10:49:05;5.60;99.90
48998;DHT22;34807;51.456;7.244;2023-02-01T10:54:08;5.60;99.90
48998;DHT22;34807;51.456;7.244;2023-02-01T10:56:37;5.50;99.90
48998;DHT22;34807;51.456;7.244;2023-02-01T10:59:03;5.60;99.90
48998;DHT22;34807;51.456;7.244;2023-02-01T11:03:58;5.50;99.90
48998;DHT22;34807;51.456;7.244;2023-02-01T11:08:53;5.60;99.90
48998;DHT22;34807;51.456;7.244;2023-02-01T11:11:20;5.60;99.90
48998;DHT22;34807;51.456;7.244;2023-02-01T11:13:51;5.60;99.90
48998;DHT22;34807;51.456;7.244;2023-02-01T11:16:17;5.60;99.90
48998;DHT22;34807;51.456;7.244;2023-02-01T11:18:43;5.60;99.90
48998;DHT22;34807;51.456;7.244;2023-02-01T11:21:09;5.60;99.90
48998;DHT22;34807;51.456;7.244;2023-02-01T11:23:39;5.60;99.90
48998;DHT22;34807;51.456;7.244;2023-02-01T11:26:10;5.60;99.90
48998;DHT22;34807;51.456;7.244;2023-02-01T11:28:37;5.60;99.90
48998;DHT22;34807;51.456;7.244;2023-02-01T11:31:04;5.60;99.90
48998;DHT22;34807;51.456;7.244;2023-02-01T11:33:31;5.70;99.90
48998;DHT22;34807;51.456;7.244;2023-02-01T11:36:07;5.70;99.90
48998;DHT22;34807;51.456;7.244;2023-02-01T11:38:33;5.70;99.90
48998;DHT22;34807;51.456;7.244;2023-02-01T11:41:12;5.70;99.90
48998;DHT22;34807;51.456;7.244;2023-02-01T11:43:49;5.70;99.90
48998;DHT22;34807;51.456;7.244;2023-02-01T11:46:18;5.70;99.90
48998;DHT22;34807;51.456;7.244;2023-02-01T11:48:50;5.70;99.90
48998;DHT22;34807;51.456;7.244;2023-02-01T11:51:22;5.70;99.90
48998;DHT22;34807;51.456;7.244;2023-02-01T12:06:55;5.70;99.90
48998;DHT22;34807;51.456;7.244;2023-02-01T12:28:36;5.70;99.90
48998;DHT22;34807;51.456;7.244;2023-02-01T12:31:12;5.70;99.90
48998;DHT22;34807;51.456;7.244;2023-02-01T12:39:17;5.70;99.90
48998;DHT22;34807;51.456;7.244;2023-02-01T12:41:53;5.60;99.90
48998;DHT22;34807;51.456;7.244;2023-02-01T12:45:06;5.60;99.90
48998;DHT22;34807;51.456;7.244;2023-02-01T12:47:14;5.60;99.90
48998;DHT22;34807;51.456;7.244;2023-02-01T12:50:00;5.60;99.90
48998;DHT22;34807;51.456;7.244;2023-02-01T12:55:19;5.70;99.90
48998;DHT22;34807;51.456;7.244;2023-02-01T12:57:46;5.60;99.90
48998;DHT22;34807;51.456;7.244;2023-02-01T13:07:58;5.60;99.90
48998;DHT22;34807;51.456;7.244;2023-02-01T13:10:35;5.60;99.90
48998;DHT22;34807;51.456;7.244;2023-02-01T13:15:31;5.70;99.90
48998;DHT22;34807;51.456;7.244;2023-02-01T13:18:01;5.60;99.90
48998;DHT22;34807;51.456;7.244;2023-02-01T13:20:30;5.60;99.90
48998;DHT22;34807;51.456;7.244;2023-02-01T13:23:05;5.60;99.90
48998;DHT22;34807;51.456;7.244;2023-02-01T13:28:04;5.60;99.90
48998;DHT22;34807;51.456;7.244;2023-02-01T13:30:37;5.60;99.90
48998;DHT22;34807;51.456;7.244;2023-02-01T13:35:45;5.60;99.90
48998;DHT22;34807;51.456;7.244;2023-02-01T13:41:05;5.60;99.90
48998;DHT22;34807;51.456;7.244;2023-02-01T13:43:33;5.60;99.90
48998;DHT22;34807;51.456;7.244;2023-02-01T13:46:04;5.60;99.90
48998;DHT22;34807;51.456;7.244;2023-02-01T13:49:03;5.60;99.90
48998;DHT22;34807;51.456;7.244;2023-02-01T13:54:00;5.70;99.90
48998;DHT22;34807;51.456;7.244;2023-02-01T13:56:26;5.70;99.90
48998;DHT22;34807;51.456;7.244;2023-02-01T13:58:51;5.60;99.90
48998;DHT22;34807;51.456;7.244;2023-02-01T14:06:46;5.70;99.90
48998;DHT22;34807;51.456;7.244;2023-02-01T14:19:30;5.70;99.90
48998;DHT22;34807;51.456;7.244;2023-02-01T14:21:57;5.60;99.90
48998;DHT22;34807;51.456;7.244;2023-02-01T14:26:52;5.70;99.90
48998;DHT22;34807;51.456;7.244;2023-02-01T14:29:22;5.70;99.90
48998;DHT22;34807;51.456;7.244;2023-02-01T14:34:18;5.70;99.90
48998;DHT22;34807;51.456;7.244;2023-02-01T14:36:47;5.70;99.90
48998;DHT22;34807;51.456;7.244;2023-02-01T14:39:20;5.70;99.90
48998;DHT22;34807;51.456;7.244;2023-02-01T14:41:47;5.70;99.90
48998;DHT22;34807;51.456;7.244;2023-02-01T14:44:14;5.70;99.90
48998;DHT22;34807;51.456;7.244;2023-02-01T14:49:24;5.70;99.90
48998;DHT22;34807;51.456;7.244;2023-02-01T14:51:53;5.70;99.90
48998;DHT22;34807;51.456;7.244;2023-02-01T14:54:19;5.70;99.90
48998;DHT22;34807;51.456;7.244;2023-02-01T14:56:45;5.70;99.90
48998;DHT22;34807;51.456;7.244;2023-02-01T14:59:12;5.70;99.90
48998;DHT22;34807;51.456;7.244;2023-02-01T15:01:46;5.70;99.90
48998;DHT22;34807;51.456;7.244;2023-02-01T15:04:14;5.70;99.90
48998;DHT22;34807;51.456;7.244;2023-02-01T15:14:21;5.80;99.90
48998;DHT22;34807;51.456;7.244;2023-02-01T15:16:47;5.70;99.90
48998;DHT22;34807;51.456;7.244;2023-02-01T15:19:19;5.80;99.90
48998;DHT22;34807;51.456;7.244;2023-02-01T15:21:47;5.80;99.90
48998;DHT22;34807;51.456;7.244;2023-02-01T15:24:14;5.70;99.90
48998;DHT22;34807;51.456;7.244;2023-02-01T15:26:43;5.80;99.90
48998;DHT22;34807;51.456;7.244;2023-02-01T15:29:10;5.80;99.90
48998;DHT22;34807;51.456;7.244;2023-02-01T15:31:46;5.80;99.90
48998;DHT22;34807;51.456;7.244;2023-02-01T15:34:12;5.80;99.90
48998;DHT22;34807;51.456;7.244;2023-02-01T15:36:38;5.80;99.90
48998;DHT22;34807;51.456;7.244;2023-02-01T15:42:15;5.80;99.90
48998;DHT22;34807;51.456;7.244;2023-02-01T15:44:44;5.80;99.90
48998;DHT22;34807;51.456;7.244;2023-02-01T15:47:23;5.80;99.90
48998;DHT22;34807;51.456;7.244;2023-02-01T15:49:53;5.80;99.90
48998;DHT22;34807;51.456;7.244;2023-02-01T15:52:35;5.70;99.90
48998;DHT22;34807;51.456;7.244;2023-02-01T15:55:01;5.80;99.90
48998;DHT22;34807;51.456;7.244;2023-02-01T15:57:32;5.80;99.90
48998;DHT22;34807;51.456;7.244;2023-02-01T16:00:17;5.80;99.90
48998;DHT22;34807;51.456;7.244;2023-02-01T16:05:33;5.80;99.90
48998;DHT22;34807;51.456;7.244;2023-02-01T16:08:01;5.80;99.90
48998;DHT22;34807;51.456;7.244;2023-02-01T16:10:29;5.80;99.90
48998;DHT22;34807;51.456;7.244;2023-02-01T16:12:54;5.80;99.90
48998;DHT22;34807;51.456;7.244;2023-02-01T16:15:23;5.80;99.90
48998;DHT22;34807;51.456;7.244;2023-02-01T16:17:49;5.80;99.90
48998;DHT22;34807;51.456;7.244;2023-02-01T16:20:14;5.80;99.90
48998;DHT22;34807;51.456;7.244;2023-02-01T16:22:40;5.80;99.90
48998;DHT22;34807;51.456;7.244;2023-02-01T16:25:06;5.80;99.90
48998;DHT22;34807;51.456;7.244;2023-02-01T16:27:31;5.80;99.90
48998;DHT22;34807;51.456;7.244;2023-02-01T16:29:57;5.80;99.90
48998;DHT22;34807;51.456;7.244;2023-02-01T16:32:22;5.80;99.90
48998;DHT22;34807;51.456;7.244;2023-02-01T16:34:48;5.80;99.90
48998;DHT22;34807;51.456;7.244;2023-02-01T16:37:16;5.80;99.90
48998;DHT22;34807;51.456;7.244;2023-02-01T16:39:43;5.80;99.90
48998;DHT22;34807;51.456;7.244;2023-02-01T16:42:10;5.80;99.90
48998;DHT22;34807;51.456;7.244;2023-02-01T16:44:35;5.80;99.90
48998;DHT22;34807;51.456;7.244;2023-02-01T16:47:01;5.80;99.90
48998;DHT22;34807;51.456;7.244;2023-02-01T16:49:26;5.80;99.90
48998;DHT22;34807;51.456;7.244;2023-02-01T16:51:54;5.80;99.90
48998;DHT22;34807;51.456;7.244;2023-02-01T16:54:21;5.80;99.90
48998;DHT22;34807;51.456;7.244;2023-02-01T16:56:46;5.80;99.90
48998;DHT22;34807;51.456;7.244;2023-02-01T16:59:12;5.80;99.90
48998;DHT22;34807;51.456;7.244;2023-02-01T17:01:38;5.80;99.90
48998;DHT22;34807;51.456;7.244;2023-02-01T17:04:05;5.70;99.90
48998;DHT22;34807;51.456;7.244;2023-02-01T17:06:31;5.70;99.90
48998;DHT22;34807;51.456;7.244;2023-02-01T17:08:58;5.80;99.90
48998;DHT22;34807;51.456;7.244;2023-02-01T17:11:24;5.70;99.90
48998;DHT22;34807;51.456;7.244;2023-02-01T17:13:50;5.70;99.90
48998;DHT22;34807;51.456;7.244;2023-02-01T17:18:46;5.70;99.90
48998;DHT22;34807;51.456;7.244;2023-02-01T17:21:12;5.80;99.90
48998;DHT22;34807;51.456;7.244;2023-02-01T17:23:38;5.80;99.90
48998;DHT22;34807;51.456;7.244;2023-02-01T17:26:04;5.80;99.90
48998;DHT22;34807;51.456;7.244;2023-02-01T17:28:29;5.70;99.90
48998;DHT22;34807;51.456;7.244;2023-02-01T17:30:55;5.70;99.90
48998;DHT22;34807;51.456;7.244;2023-02-01T17:35:46;5.70;99.90
48998;DHT22;34807;51.456;7.244;2023-02-01T17:38:12;5.70;99.90
48998;DHT22;34807;51.456;7.244;2023-02-01T17:40:38;5.70;99.90
48998;DHT22;34807;51.456;7.244;2023-02-01T17:43:04;5.60;99.90
48998;DHT22;34807;51.456;7.244;2023-02-01T17:45:36;5.60;99.90
48998;DHT22;34807;51.456;7.244;2023-02-01T17:48:05;5.60;99.90
48998;DHT22;34807;51.456;7.244;2023-02-01T17:50:31;5.60;99.90
48998;DHT22;34807;51.456;7.244;2023-02-01T17:52:57;5.60;99.90
48998;DHT22;34807;51.456;7.244;2023-02-01T17:55:23;5.60;99.90
48998;DHT22;34807;51.456;7.244;2023-02-01T17:57:49;5.60;99.90
48998;DHT22;34807;51.456;7.244;2023-02-01T18:00:15;5.60;99.90
48998;DHT22;34807;51.456;7.244;2023-02-01T18:02:41;5.60;99.90
48998;DHT22;34807;51.456;7.244;2023-02-01T18:05:29;5.50;99.90
48998;DHT22;34807;51.456;7.244;2023-02-01T18:07:52;5.60;99.90
48998;DHT22;34807;51.456;7.244;2023-02-01T18:10:18;5.60;99.90
48998;DHT22;34807;51.456;7.244;2023-02-01T18:12:43;5.60;99.90
48998;DHT22;34807;51.456;7.244;2023-02-01T18:17:41;5.60;99.90
48998;DHT22;34807;51.456;7.244;2023-02-01T18:20:06;5.60;99.90
48998;DHT22;34807;51.456;7.244;2023-02-01T18:22:32;5.60;99.90
48998;DHT22;34807;51.456;7.244;2023-02-01T18:24:57;5.50;99.90
48998;DHT22;34807;51.456;7.244;2023-02-01T18:27:23;5.60;99.90
48998;DHT22;34807;51.456;7.244;2023-02-01T18:29:48;5.60;99.90
48998;DHT22;34807;51.456;7.244;2023-02-01T18:32:14;5.60;99.90
48998;DHT22;34807;51.456;7.244;2023-02-01T18:34:39;5.60;99.90